Tiempo atmosférico en la estación meteorológica de Binissalem, Illes Balears (105 m.)



Fecha
DESCASC
Temp. máxima en grados centígrados (hora)
DESCASC
Temp. mínima en grados centígrados (hora)
DESCASC
Temp. media en grados centígrados
DESCASC
Racha de viento máxima en m/sg (hora)
DESCASC
Velocidad máxima media en intervalos de 10 minutos(hora)
DESCASC
Precipitaciones diarias en mm
DESCASC
Precipitaciones de 00:00 a 06:00 en mm
DESCASC
Precipitaciones de 06:00 a 12:00 en mm
DESCASC
Precipitaciones de 12:00 a 18:00 en mm
DESCASC
Precipitaciones de 18:00 a 24:00 en mm
DESCASC
17-09-2020 32 (15:10) 16.8 (05:30) 24.4 6.11 (17:00) 3.89 (16:10) 0 0 0 0 0
16-09-2020 32.5 (14:20) 16.7 (07:10) 24.6 8.89 (16:20) 3.61 (15:10) 0 0 0 0 0
15-09-2020 32.4 (14:20) 16.3 (07:20) 24.4 10 (15:00) 5 (16:00) 0 0 0 0 0
14-09-2020 32.2 (15:10) 16.1 (00:00) 24.2 6.11 (16:30) 3.89 (18:20) 0 0 0 0 0
13-09-2020 33 (15:10) 16.3 (00:00) 24.6 8.61 (15:40) 4.72 (16:10) 0 0 0 0 0
12-09-2020 31.5 (15:40) 17.3 (00:00) 24.4 7.5 (15:20) 4.17 (14:40) 0 0 0 0 0
11-09-2020 29.8 (16:30) 18.5 (00:00) 24.1 8.89 (13:20) 5.28 (14:50) 4.8 4.6 0.2 0 0
10-09-2020 28.3 (13:10) 15.1 (00:00) 21.7 10.83 (14:40) 6.67 (14:40) 0 0 0 0 0
09-09-2020 27.9 (15:50) 14.4 (00:00) 21.1 7.78 (16:30) 4.17 (16:50) 0 0 0 0 0
08-09-2020 26.9 (15:50) 14.7 (00:00) 20.8 9.72 (16:30) 5.28 (10:50) 1.2 0 1 0.2 0
07-09-2020 23.3 (00:30) 16.6 (15:30) 19.9 12.22 (15:30) 6.67 (15:20) 26.4 2 18.6 5.8 0
06-09-2020 31.5 (15:40) 16.1 (00:00) 23.8 8.33 (16:20) 4.72 (12:00) 0 0 0 0 0
05-09-2020 31.1 (16:10) 16.5 (00:00) 23.8 7.78 (16:00) 4.17 (17:00) 0 0 0 0 0
04-09-2020 30.4 (13:50) 16 (00:00) 23.2 7.22 (15:00) 3.33 (17:40) 0 0 0 0 0
03-09-2020 28.9 (12:40) 15.2 (00:00) 22 6.39 (13:50) 3.61 (13:50) 0 0 0 0 0
02-09-2020 28.2 (15:30) 16.9 (00:00) 22.6 10 (05:40) 6.39 (05:30) 4.2 1.2 3 0 0
01-09-2020 29.5 (13:50) 13.5 (00:00) 21.5 7.5 (14:20) 4.72 (14:20) 0 0 0 0 0
31-08-2020 27.1 (12:20) 15.4 (00:00) 21.3 10 (17:20) 5 (15:40) 0 0 0 0 0
30-08-2020 26.8 (15:20) 15.7 (00:00) 21.2 10 (12:40) 4.72 (16:00) 0.2 0.2 0 0 0
29-08-2020 28.6 (10:30) 18 (00:00) 23.3 20 (11:30) 9.44 (11:30) 34 0 26.6 3.8 3.6
28-08-2020 34.8 (16:40) 17.1 (00:00) 25.9 9.17 (17:30) 5.83 (14:40) 0 0 0 0 0
27-08-2020 35 (13:20) 18.5 (00:00) 26.8 7.78 (14:00) 5.28 (18:00) 0 0 0 0 0
26-08-2020 35.6 (14:30) 18.2 (00:00) 26.9 8.33 (15:50) 5.28 (17:10) 0 0 0 0 0
25-08-2020 32.5 (15:20) 19.1 (00:00) 25.8 8.89 (17:30) 5.83 (17:30) 0 0 0 0 0
24-08-2020 29.8 (19:00) 19.7 (00:00) 24.8 7.5 (14:40) 5 (14:40) 0 0 0 0 0
23-08-2020 33 (15:30) 23 (00:00) 28 8.61 (13:00) 5 (10:00) 0 0 0 0 0
22-08-2020 34.8 (15:10) 20.8 (00:00) 27.8 8.06 (11:10) 3.89 (11:20) 0 0 0 0 0
21-08-2020 37.2 (14:30) 22.4 (00:00) 29.8 8.06 (14:50) 4.72 (15:30) 0 0 0 0 0

Gráficas

Temp. máximas Temp. mínimas Temp. medias Precipitaciones Rachas de viento máximas Velocidades máximas media en intervalos de 10 minutos

Datos horarios

Fecha y hora oficial Temperatura (ºC) Velocidad del viento (km/h) Dirección del viento Racha (km/h) Dirección de racha Precipitación (mm) Presión (hPa) Tendencia (hPa) Humedad (%)
2020-09-19 23:00:00 21.9 8 Oeste 12 Oeste 0 -- -- 78
2020-09-19 22:00:00 22.2 8 Oeste 19 Oeste 0 -- -- 73
2020-09-19 21:00:00 23.3 14 Oeste 21 Oeste 0 -- -- 67
2020-09-19 20:00:00 24.3 14 Sudoeste 26 Sudoeste 0 -- -- 60
2020-09-19 19:00:00 25.8 19 Sudoeste 38 Sudoeste 0 -- -- 57
2020-09-19 18:00:00 26.9 24 Sudoeste 41 Sudoeste 0 -- -- 51
2020-09-19 17:00:00 28.3 20 Oeste 35 Sudoeste 0 -- -- 46
2020-09-19 16:00:00 28.7 21 Oeste 35 Oeste 0 -- -- 44
2020-09-19 15:00:00 29.2 19 Oeste 34 Oeste 0 -- -- 49
2020-09-19 14:00:00 29.4 19 Oeste 36 Oeste 0 -- -- 53
2020-09-19 13:00:00 28.6 14 Oeste 33 Oeste 0 -- -- 57
2020-09-19 12:00:00 28.1 17 Sudoeste 27 Sudoeste 0 -- -- 63
2020-09-19 11:00:00 26.3 12 Sudoeste 23 Oeste 0 -- -- 74
2020-09-19 10:00:00 25.6 3 Sur 6 Sudeste 0 -- -- 79
2020-09-19 09:00:00 21.1 0 Calma 4 Nordeste 0 -- -- 87
2020-09-19 08:00:00 19.2 2 Noroeste 7 Noroeste 0 -- -- 92
2020-09-19 07:00:00 18.8 5 Noroeste 8 Noroeste 0 -- -- 93
2020-09-19 06:00:00 19.5 2 Norte 6 Noroeste 0 -- -- 93
2020-09-19 05:00:00 20 4 Sur 7 Sur 0 -- -- 90
2020-09-19 04:00:00 21.5 4 Norte 15 Norte 0 -- -- 85
2020-09-19 03:00:00 21.4 2 Noroeste 10 Oeste 0 -- -- 88
2020-09-19 02:00:00 20.9 2 Nordeste 8 Noroeste 0 -- -- 91
2020-09-19 01:00:00 22.1 7 Sudoeste 10 Sudoeste 0 -- -- 89
2020-09-19 00:00:00 22.5 5 Norte 10 Noroeste 0 -- -- 87
2020-09-18 23:00:00 22.6 3 Noroeste 10 Nordeste 0 -- -- 86
2020-09-18 22:00:00 22.5 5 Nordeste 9 Nordeste 0 -- -- 85
2020-09-18 21:00:00 23.2 4 Nordeste 11 Este 0 -- -- 81
2020-09-18 20:00:00 24.8 6 Este 20 Oeste 0 -- -- 78
2020-09-18 19:00:00 26.9 6 Oeste 9 Nordeste 0 -- -- 71
2020-09-18 18:00:00 28.4 6 Este 13 Este 0 -- -- 64
2020-09-18 17:00:00 28.9 8 Este 16 Nordeste 0 -- -- 65
2020-09-18 16:00:00 28.4 3 Sudoeste 10 Norte 0 -- -- 58
2020-09-18 15:00:00 27.6 8 Norte 15 Noroeste 0 -- -- 60
2020-09-18 14:00:00 27.9 10 Noroeste 15 Oeste 0 -- -- 58
2020-09-18 13:00:00 28.1 5 Sudoeste 13 Sudoeste 0 -- -- 57
2020-09-18 12:00:00 26.9 6 Sudeste 11 Sudeste 0 -- -- 65
2020-09-18 11:00:00 26.1 0 Calma 5 Este 0 -- -- 66
2020-09-18 10:00:00 24.1 2 Nordeste 5 Noroeste 0 -- -- 67
2020-09-18 09:00:00 21.3 3 Noroeste 6 Oeste 0 -- -- 71
2020-09-18 08:00:00 18.4 3 Este 8 Noroeste 0 -- -- 79
2020-09-18 07:00:00 18.3 3 Norte 9 Noroeste 0 -- -- 78
2020-09-18 06:00:00 17.4 4 Norte 6 Norte 0 -- -- 85
2020-09-18 05:00:00 18.1 0 Calma 9 Noroeste 0 -- -- 79
2020-09-18 04:00:00 18.5 6 Noroeste 8 Noroeste 0 -- -- 77
2020-09-18 03:00:00 19 2 Oeste 6 Oeste 0 -- -- 79
2020-09-18 02:00:00 18.8 0 Calma 7 Noroeste 0 -- -- 82
2020-09-18 01:00:00 19.2 5 Noroeste 8 Noroeste 0 -- -- 78
2020-09-18 00:00:00 20.2 4 Noroeste 5 Noroeste 0 -- -- 77
2020-09-17 23:00:00 21.7 0 Calma 5 Nordeste 0 -- -- 71
2020-09-17 22:00:00 22.9 0 Calma 5 Noroeste 0 -- -- 70
2020-09-17 21:00:00 24.8 0 Calma 9 Oeste 0 -- -- 59
2020-09-17 20:00:00 26.1 6 Sudoeste 11 Oeste 0 -- -- 52
2020-09-17 19:00:00 27.1 9 Oeste 13 Oeste 0 -- -- 46
2020-09-17 18:00:00 28.3 9 Sudoeste 19 Sudoeste 0 -- -- 41
2020-09-17 17:00:00 29.8 14 Sudoeste 22 Sudoeste 0 -- -- 38
2020-09-17 16:00:00 30.5 13 Oeste 19 Sudoeste 0 -- -- 38
2020-09-17 15:00:00 31.4 4 Noroeste 13 Sur 0 -- -- 34
2020-09-17 14:00:00 30.3 6 Sudoeste 21 Sudoeste 0 -- -- 38
2020-09-17 13:00:00 29.7 10 Sudoeste 18 Sudoeste 0 -- -- 36
2020-09-17 12:00:00 29.4 10 Sudoeste 20 Sur 0 -- -- 38
2020-09-17 11:00:00 27.2 6 Sudoeste 10 Sur 0 -- -- 51
2020-09-17 10:00:00 25.3 0 Calma 4 Este 0 -- -- 58
2020-09-17 09:00:00 20.7 0 Calma 5 Sudoeste 0 -- -- 75
2020-09-17 08:00:00 16.8 0 Calma 8 Oeste 0 -- -- 87
2020-09-17 07:00:00 17.3 6 Sudoeste 8 Oeste 0 -- -- 85
2020-09-17 06:00:00 17 5 Sudoeste 10 Sudoeste 0 -- -- 88
2020-09-17 05:00:00 17.2 3 Noroeste 5 Sudoeste 0 -- -- 89
2020-09-17 04:00:00 17.9 0 Calma 7 Oeste 0 -- -- 87
2020-09-17 03:00:00 18.5 5 Oeste 9 Oeste 0 -- -- 87
2020-09-17 02:00:00 18.9 2 Noroeste 8 Sudoeste 0 -- -- 87
2020-09-17 01:00:00 19.6 2 Sudoeste 5 Sudoeste 0 -- -- 86
2020-09-17 00:00:00 20.4 3 Norte 7 Noroeste 0 -- -- 83
2020-09-16 23:00:00 21.3 3 Noroeste 5 Noroeste 0 -- -- 80
2020-09-16 22:00:00 22.6 0 Calma 7 Oeste 0 -- -- 78
2020-09-16 21:00:00 24.3 6 Oeste 8 Oeste 0 -- -- 71
2020-09-16 20:00:00 26.1 3 Oeste 13 Sudoeste 0 -- -- 60
2020-09-16 19:00:00 28.4 8 Oeste 14 Sudoeste 0 -- -- 45
2020-09-16 18:00:00 29.4 10 Sudoeste 19 Sudoeste 0 -- -- 43
2020-09-16 17:00:00 30.3 10 Oeste 32 Nordeste 0 -- -- 40
2020-09-16 16:00:00 31.6 8 Sur 20 Sur 0 -- -- 47
2020-09-16 15:00:00 32 4 Sur 19 Sudoeste 0 -- -- 37
2020-09-16 14:00:00 31.8 6 Este 19 Este 0 -- -- 40
2020-09-16 13:00:00 31.1 4 Este 16 Este 0 -- -- 42
2020-09-16 12:00:00 29.8 5 Este 12 Este 0 -- -- 46
2020-09-16 11:00:00 28.4 3 Sudeste 6 Sur 0 -- -- 52
2020-09-16 10:00:00 26.3 2 Sudeste 4 Sudeste 0 -- -- 59
2020-09-16 09:00:00 21 0 Calma 5 Noroeste 0 -- -- 82
2020-09-16 08:00:00 17.3 0 Calma 5 Oeste 0 -- -- 92
2020-09-16 07:00:00 16.9 3 Oeste 5 Sudoeste 0 -- -- 91
2020-09-16 06:00:00 17.4 3 Sur 5 Sudoeste 0 -- -- 90
2020-09-16 05:00:00 17.7 2 Sudoeste 6 Oeste 0 -- -- 91
2020-09-16 04:00:00 17.8 3 Sudoeste 5 Sudoeste 0 -- -- 91
2020-09-16 03:00:00 18.4 4 Sudoeste 5 Oeste 0 -- -- 89
2020-09-16 02:00:00 18.6 3 Sudoeste 5 Noroeste 0 -- -- 88
2020-09-16 01:00:00 19.7 0 Calma 6 Noroeste 0 -- -- 85
2020-09-16 00:00:00 20.5 4 Noroeste 6 Noroeste 0 -- -- 82
2020-09-15 23:00:00 20.8 5 Norte 7 Norte 0 -- -- 81
2020-09-15 22:00:00 22.3 3 Norte 5 Norte 0 -- -- 73
2020-09-15 21:00:00 23.9 3 Nordeste 6 Nordeste 0 -- -- 66
2020-09-15 20:00:00 25.8 5 Este 15 Este 0 -- -- 61
2020-09-15 19:00:00 28.6 9 Nordeste 19 Este 0 -- -- 47
2020-09-15 18:00:00 30.2 9 Este 21 Este 0 -- -- 48
2020-09-15 17:00:00 31 12 Sudoeste 24 Oeste 0 -- -- 41
2020-09-15 16:00:00 30.8 18 Sudoeste 27 Sudoeste 0 -- -- 42
2020-09-15 15:00:00 32.1 14 Sudoeste 36 Oeste 0 -- -- 37
2020-09-15 14:00:00 31.9 8 Este 15 Sudeste 0 -- -- 38
2020-09-15 13:00:00 31.4 4 Sudeste 12 Sudeste 0 -- -- 37
2020-09-15 12:00:00 29.9 4 Nordeste 9 Este 0 -- -- 39
2020-09-15 11:00:00 25.5 4 Sudeste 8 Este 0 -- -- 61
2020-09-15 10:00:00 24 0 Calma 8 Este 0 -- -- 68
2020-09-15 09:00:00 20.9 2 Nordeste 6 Este 0 -- -- 76
2020-09-15 08:00:00 16.8 2 Oeste 6 Noroeste 0 -- -- 92
2020-09-15 07:00:00 16.4 4 Sur 5 Sur 0 -- -- 90
2020-09-15 06:00:00 16.8 4 Oeste 6 Sudoeste 0 -- -- 91
2020-09-15 05:00:00 17.2 4 Oeste 6 Noroeste 0 -- -- 91
2020-09-15 04:00:00 17.6 3 Sudoeste 6 Noroeste 0 -- -- 90
2020-09-15 03:00:00 18.1 5 Noroeste 7 Oeste 0 -- -- 88
2020-09-15 02:00:00 18.5 3 Oeste 4 Oeste 0 -- -- 89
2020-09-15 01:00:00 19.3 0 Calma 6 Noroeste 0 -- -- 85
2020-09-15 00:00:00 20 3 Norte 5 Nordeste 0 -- -- 84
2020-09-14 23:00:00 21.3 0 Calma 6 Noroeste 0 -- -- 78
2020-09-14 22:00:00 21.7 5 Noroeste 7 Noroeste 0 -- -- 77
2020-09-14 21:00:00 23.5 0 Calma 15 Este 0 -- -- 68
2020-09-14 20:00:00 25.2 7 Sudeste 15 Este 0 -- -- 62
2020-09-14 19:00:00 29.3 9 Nordeste 21 Nordeste 0 -- -- 49
2020-09-14 18:00:00 30.8 12 Nordeste 22 Este 0 -- -- 47
2020-09-14 17:00:00 31.9 10 Nordeste 22 Este 0 -- -- 47
2020-09-14 16:00:00 32.1 11 Este 22 Este 0 -- -- 46
2020-09-14 15:00:00 31.9 10 Nordeste 19 Este 0 -- -- 43
2020-09-14 14:00:00 31.1 8 Nordeste 18 Este 0 -- -- 45
2020-09-14 13:00:00 31 6 Nordeste 16 Este 0 -- -- 45
2020-09-14 12:00:00 30 5 Este 9 Este 0 -- -- 45
2020-09-14 11:00:00 28.9 3 Este 7 Sudoeste 0 -- -- 48
2020-09-14 10:00:00 25.3 5 Sur 8 Sur 0 -- -- 59
2020-09-14 09:00:00 21.2 3 Sudoeste 5 Oeste 0 -- -- 77
2020-09-14 08:00:00 16.4 0 Calma 6 Sudoeste 0 -- -- 93
2020-09-14 07:00:00 16.2 3 Oeste 4 Oeste 0 -- -- 92
2020-09-14 06:00:00 16.5 4 Oeste 5 Oeste 0 -- -- 91
2020-09-14 05:00:00 16.8 3 Sudoeste 4 Sudoeste 0 -- -- 92
2020-09-14 04:00:00 17.6 0 Calma 6 Noroeste 0 -- -- 89
2020-09-14 03:00:00 17.8 4 Oeste 5 Noroeste 0 -- -- 86
2020-09-14 02:00:00 18.3 2 Noroeste 6 Norte 0 -- -- 83
2020-09-14 01:00:00 18.7 4 Noroeste 5 Noroeste 0 -- -- 87
2020-09-14 00:00:00 19.6 3 Norte 6 Noroeste 0 -- -- 86
2020-09-13 23:00:00 20.8 0 Calma 6 Noroeste 0 -- -- 82
2020-09-13 22:00:00 21.8 2 Oeste 4 Este 0 -- -- 79
2020-09-13 21:00:00 23.7 2 Este 12 Este 0 -- -- 69
2020-09-13 20:00:00 26.6 5 Este 20 Este 0 -- -- 49
2020-09-13 19:00:00 29.9 10 Este 25 Este 0 -- -- 41
2020-09-13 18:00:00 31.2 15 Este 28 Este 0 -- -- 41
2020-09-13 17:00:00 32.4 14 Este 28 Este 0 -- -- 33
2020-09-13 16:00:00 32.1 17 Este 31 Este 0 -- -- 35
2020-09-13 15:00:00 32.9 13 Nordeste 27 Este 0 -- -- 33
2020-09-13 14:00:00 32.5 13 Este 22 Nordeste 0 -- -- 34
2020-09-13 13:00:00 31.9 13 Nordeste 23 Este 0 -- -- 36
2020-09-13 12:00:00 30.9 11 Nordeste 19 Este 0 -- -- 41
2020-09-13 11:00:00 28.2 5 Este 11 Este 0 -- -- 50
2020-09-13 10:00:00 25.9 2 Sudeste 9 Sur 0 -- -- 55
2020-09-13 09:00:00 21.9 0 Calma 6 Oeste 0 -- -- 73
2020-09-13 08:00:00 16.6 4 Sudoeste 5 Sudoeste 0 -- -- 91
2020-09-13 07:00:00 16.6 4 Noroeste 6 Noroeste 0 -- -- 87
2020-09-13 06:00:00 17.2 4 Noroeste 7 Noroeste 0 -- -- 86
2020-09-13 05:00:00 17 6 Noroeste 8 Noroeste 0 -- -- 87
2020-09-13 04:00:00 17.5 2 Oeste 7 Oeste 0 -- -- 87
2020-09-13 03:00:00 18.3 0 Calma 9 Oeste 0 -- -- 84
2020-09-13 02:00:00 18.5 5 Oeste 6 Norte 0 -- -- 87
2020-09-13 01:00:00 19 6 Norte 8 Noroeste 0 -- -- 87
2020-09-13 00:00:00 19.5 4 Noroeste 4 Noroeste 0 -- -- 83
2020-09-12 23:00:00 20.6 0 Calma 5 Sur 0 -- -- 82
2020-09-12 22:00:00 21.9 0 Calma 7 Nordeste 0 -- -- 73
2020-09-12 21:00:00 23.2 5 Este 13 Este 0 -- -- 69
2020-09-12 20:00:00 25.5 6 Este 19 Nordeste 0 -- -- 63
2020-09-12 19:00:00 29 11 Nordeste 22 Nordeste 0 -- -- 42
2020-09-12 18:00:00 30 14 Nordeste 23 Norte 0 -- -- 39
2020-09-12 17:00:00 30.7 13 Nordeste 24 Nordeste 0 -- -- 39
2020-09-12 16:00:00 31.2 14 Nordeste 27 Nordeste 0 -- -- 39
2020-09-12 15:00:00 31.2 13 Nordeste 26 Nordeste 0 -- -- 40
2020-09-12 14:00:00 31.2 10 Este 22 Nordeste 0 -- -- 39
2020-09-12 13:00:00 30.9 9 Nordeste 20 Nordeste 0 -- -- 40
2020-09-12 12:00:00 29 4 Sudeste 14 Oeste 0 -- -- 49
2020-09-12 11:00:00 27.4 5 Sudeste 10 Sur 0 -- -- 51
2020-09-12 10:00:00 25.1 5 Sudoeste 8 Sudoeste 0 -- -- 63
2020-09-12 09:00:00 21.2 6 Sudoeste 8 Sudoeste 0 -- -- 83
2020-09-12 08:00:00 17.9 5 Oeste 8 Noroeste 0 -- -- 94
2020-09-12 07:00:00 17.4 6 Oeste 9 Sudoeste 0 -- -- 94
2020-09-12 06:00:00 17.7 5 Noroeste 8 Oeste 0 -- -- 94
2020-09-12 05:00:00 17.6 3 Noroeste 6 Sur 0 -- -- 94
2020-09-12 04:00:00 18.3 5 Sudeste 8 Sudeste 0 -- -- 91
2020-09-12 03:00:00 18.2 6 Oeste 7 Oeste 0 -- -- 90
2020-09-12 02:00:00 18.6 5 Sudoeste 8 Sudoeste 0 -- -- 90
2020-09-12 01:00:00 19.2 0 Calma 7 Sur 0 -- -- 86
2020-09-12 00:00:00 19.6 5 Oeste 9 Noroeste 0 -- -- 84
2020-09-11 23:00:00 21.4 0 Calma 8 Este 0 -- -- 72
2020-09-11 22:00:00 22.9 5 Noroeste 15 Sudoeste 0 -- -- 62
2020-09-11 21:00:00 23.4 9 Norte 17 Norte 0 -- -- 59
2020-09-11 20:00:00 25 7 Nordeste 21 Nordeste 0 -- -- 56
2020-09-11 19:00:00 27.2 12 Nordeste 24 Nordeste 0 -- -- 51
2020-09-11 18:00:00 28.5 14 Nordeste 26 Nordeste 0 -- -- 47
2020-09-11 17:00:00 29.5 14 Nordeste 24 Nordeste 0 -- -- 44
2020-09-11 16:00:00 29.7 12 Nordeste 24 Noroeste 0 -- -- 47
2020-09-11 15:00:00 28.7 18 Noroeste 28 Norte 0 -- -- 52
2020-09-11 14:00:00 28.2 17 Noroeste 32 Noroeste 0 -- -- 53
2020-09-11 13:00:00 27.8 16 Noroeste 30 Noroeste 0 -- -- 52
2020-09-11 12:00:00 27.2 15 Noroeste 31 Noroeste 0 -- -- 57
2020-09-11 11:00:00 26.6 15 Noroeste 26 Noroeste 0 -- -- 60
2020-09-11 10:00:00 25.1 11 Oeste 23 Noroeste 0 -- -- 69
2020-09-11 09:00:00 20.6 4 Sudoeste 10 Sur 0 -- -- 92
2020-09-11 08:00:00 19.6 8 Sur 14 Oeste 0 -- -- 93
2020-09-11 07:00:00 19.4 4 Sur 11 Sudoeste 0.2 -- -- 93
2020-09-11 06:00:00 19.3 5 Sur 14 Oeste 1.4 -- -- 92
2020-09-11 05:00:00 19.1 9 Sudoeste 20 Nordeste 3 -- -- 92
2020-09-11 04:00:00 20.4 4 Sur 14 Oeste 0.2 -- -- 82
2020-09-11 03:00:00 20.4 9 Sudoeste 12 Sudoeste 0 -- -- 79
2020-09-11 02:00:00 19.8 5 Sudoeste 9 Sur 0 -- -- 80
2020-09-11 01:00:00 19.9 4 Noroeste 12 Oeste 0 -- -- 82
2020-09-11 00:00:00 18.7 6 Noroeste 11 Norte 0 -- -- 87
2020-09-10 23:00:00 19.7 6 Noroeste 11 Nordeste 0 -- -- 83
2020-09-10 22:00:00 20.1 4 Este 15 Nordeste 0 -- -- 81
2020-09-10 21:00:00 21.6 8 Nordeste 13 Nordeste 0 -- -- 73
2020-09-10 20:00:00 23 7 Nordeste 23 Nordeste 0 -- -- 67
2020-09-10 19:00:00 24.8 14 Norte 27 Norte 0 -- -- 59
2020-09-10 18:00:00 25.8 14 Nordeste 26 Nordeste 0 -- -- 58
2020-09-10 17:00:00 25.1 14 Nordeste 28 Nordeste 0 -- -- 62
2020-09-10 16:00:00 24.7 20 Nordeste 35 Nordeste 0 -- -- 62
2020-09-10 15:00:00 23.1 18 Nordeste 39 Norte 0 -- -- 65
2020-09-10 14:00:00 26.7 14 Este 24 Este 0 -- -- 59
2020-09-10 13:00:00 27.7 15 Nordeste 26 Nordeste 0 -- -- 48
2020-09-10 12:00:00 26.3 12 Nordeste 22 Norte 0 -- -- 60
2020-09-10 11:00:00 24.5 7 Nordeste 16 Nordeste 0 -- -- 68
2020-09-10 10:00:00 19.5 0 Calma 12 Este 0 -- -- 91
2020-09-10 09:00:00 18.7 4 Este 6 Sudeste 0 -- -- 94
2020-09-10 08:00:00 15.7 3 Noroeste 5 Sur 0 -- -- 96
2020-09-10 07:00:00 15.4 0 Calma 5 Oeste 0 -- -- 96
2020-09-10 06:00:00 15.5 3 Oeste 6 Sudoeste 0 -- -- 95
2020-09-10 05:00:00 15.9 0 Calma 4 Noroeste 0 -- -- 95
2020-09-10 04:00:00 16.4 0 Calma 5 Noroeste 0 -- -- 95
2020-09-10 03:00:00 16.6 4 Noroeste 6 Norte 0 -- -- 94
2020-09-10 02:00:00 16.9 5 Oeste 6 Oeste 0 -- -- 94
2020-09-10 01:00:00 17.4 3 Nordeste 5 Nordeste 0 -- -- 93
2020-09-10 00:00:00 18.1 3 Noroeste 7 Oeste 0 -- -- 91
2020-09-09 23:00:00 18.8 3 Oeste 6 Sudoeste 0 -- -- 89
2020-09-09 22:00:00 19.5 0 Calma 8 Norte 0 -- -- 87
2020-09-09 21:00:00 21 6 Nordeste 11 Nordeste 0 -- -- 80
2020-09-09 20:00:00 22.4 8 Norte 16 Norte 0 -- -- 74
2020-09-09 19:00:00 22.9 11 Nordeste 20 Nordeste 0 -- -- 74
2020-09-09 18:00:00 24.6 10 Este 23 Este 0 -- -- 68
2020-09-09 17:00:00 23.2 14 Este 28 Este 0 -- -- 75
2020-09-09 16:00:00 27.5 14 Este 24 Este 0 -- -- 57
2020-09-09 15:00:00 26.6 7 Sudoeste 21 Noroeste 0 -- -- 52
2020-09-09 14:00:00 26.1 7 Sudoeste 19 Oeste 0 -- -- 55
2020-09-09 13:00:00 25.9 6 Norte 18 Sudoeste 0 -- -- 53
2020-09-09 12:00:00 25.3 4 Sudoeste 13 Sudoeste 0 -- -- 56
2020-09-09 11:00:00 24.2 6 Sur 13 Sudeste 0 -- -- 63
2020-09-09 10:00:00 22.3 7 Sur 10 Sur 0 -- -- 75
2020-09-09 09:00:00 19 4 Noroeste 6 Noroeste 0 -- -- 93
2020-09-09 08:00:00 15.2 5 Oeste 8 Noroeste 0 -- -- 97
2020-09-09 07:00:00 14.5 0 Calma 5 Sudoeste 0 -- -- 96
2020-09-09 06:00:00 14.9 4 Sur 6 Norte 0 -- -- 95
2020-09-09 05:00:00 15.5 4 Sudoeste 6 Sudoeste 0 -- -- 95
2020-09-09 04:00:00 16 3 Oeste 8 Noroeste 0 -- -- 95
2020-09-09 03:00:00 16.3 4 Sudoeste 9 Sur 0 -- -- 94
2020-09-09 02:00:00 16.9 4 Oeste 7 Sudoeste 0 -- -- 94
2020-09-09 01:00:00 17.3 3 Noroeste 5 Noroeste 0 -- -- 94
2020-09-09 00:00:00 18 3 Oeste 6 Noroeste 0 -- -- 93
2020-09-08 23:00:00 18.3 2 Oeste 8 Sur 0 -- -- 91
2020-09-08 22:00:00 19.2 4 Oeste 6 Noroeste 0 -- -- 88
2020-09-08 21:00:00 20.6 4 Noroeste 5 Noroeste 0 -- -- 85
2020-09-08 20:00:00 22.1 0 Calma 6 Norte 0 -- -- 74
2020-09-08 19:00:00 23.2 3 Norte 7 Norte 0 -- -- 68
2020-09-08 18:00:00 22.3 2 Nordeste 15 Sudeste 0 -- -- 75
2020-09-08 17:00:00 21 12 Sudeste 35 Sudeste 0.2 -- -- 80
2020-09-08 16:00:00 26.9 10 Este 17 Este 0 -- -- 52
2020-09-08 15:00:00 26.1 8 Nordeste 21 Este 0 -- -- 58
2020-09-08 14:00:00 23.9 9 Este 18 Este 0 -- -- 68
2020-09-08 13:00:00 20 3 Sur 8 Sudoeste 0 -- -- 86
2020-09-08 12:00:00 18.5 3 Sudoeste 29 Nordeste 1 -- -- 89
2020-09-08 11:00:00 19.3 18 Nordeste 31 Nordeste 0 -- -- 76
2020-09-08 10:00:00 20.6 6 Este 22 Nordeste 0 -- -- 77
2020-09-08 09:00:00 21 9 Nordeste 26 Norte 0 -- -- 68
2020-09-08 08:00:00 18.8 7 Norte 18 Nordeste 0 -- -- 72
2020-09-08 07:00:00 18.3 10 Nordeste 17 Norte 0 -- -- 72
2020-09-08 06:00:00 16.4 7 Norte 12 Nordeste 0 -- -- 84
2020-09-08 05:00:00 14.8 3 Norte 6 Norte 0 -- -- 92
2020-09-08 04:00:00 15.2 4 Norte 5 Norte 0 -- -- 91
2020-09-08 03:00:00 15.3 2 Sudoeste 6 Oeste 0 -- -- 90
2020-09-08 02:00:00 15.4 0 Calma 6 Sur 0 -- -- 89
2020-09-08 01:00:00 16.5 3 Este 10 Norte 0 -- -- 82
2020-09-08 00:00:00 17.5 8 Nordeste 14 Norte 0 -- -- 77
2020-09-07 23:00:00 17.3 8 Nordeste 13 Nordeste 0 -- -- 82
2020-09-07 22:00:00 17.4 6 Nordeste 13 Nordeste 0 -- -- 86
2020-09-07 21:00:00 17.5 4 Nordeste 8 Nordeste 0 -- -- 92
2020-09-07 20:00:00 18 4 Nordeste 8 Este 0 -- -- 91
2020-09-07 19:00:00 17.6 4 Este 12 Nordeste 0 -- -- 92
2020-09-07 18:00:00 17.2 8 Nordeste 25 Nordeste 1 -- -- 92
2020-09-07 17:00:00 17 12 Nordeste 28 Nordeste 1.4 -- -- 92
2020-09-07 16:00:00 16.8 18 Nordeste 44 Nordeste 0.8 -- -- 92
2020-09-07 15:00:00 17.2 7 Nordeste 23 Nordeste 1.8 -- -- 94
2020-09-07 14:00:00 17.1 15 Nordeste 33 Nordeste 0.2 -- -- 95
2020-09-07 13:00:00 16.8 16 Nordeste 31 Nordeste 0.6 -- -- 95
2020-09-07 12:00:00 17.3 13 Nordeste 30 Nordeste 5 -- -- 96
2020-09-07 11:00:00 17.6 15 Nordeste 23 Nordeste 6.2 -- -- 95
2020-09-07 10:00:00 17.9 19 Nordeste 31 Nordeste 3.2 -- -- 95
2020-09-07 09:00:00 18.4 9 Nordeste 17 Nordeste 0.8 -- -- 94
2020-09-07 08:00:00 18 7 Nordeste 29 Nordeste 1.8 -- -- 94
2020-09-07 07:00:00 18 13 Norte 36 Nordeste 1.6 -- -- 93
2020-09-07 06:00:00 18.2 18 Nordeste 36 Nordeste 1 -- -- 92
2020-09-07 05:00:00 20.6 12 Nordeste 22 Nordeste 1 -- -- 91
2020-09-07 04:00:00 22.2 6 Nordeste 12 Norte 0 -- -- 84
2020-09-07 03:00:00 22.7 3 Nordeste 8 Este 0 -- -- 79
2020-09-07 02:00:00 22.8 4 Este 6 Este 0 -- -- 80
2020-09-07 01:00:00 23.1 0 Calma 4 Nordeste 0 -- -- 77
2020-09-07 00:00:00 23.1 3 Nordeste 9 Nordeste 0 -- -- 77
2020-09-06 23:00:00 22.8 6 Nordeste 12 Nordeste 0 -- -- 76
2020-09-06 22:00:00 23.4 6 Norte 10 Norte 0 -- -- 73
2020-09-06 21:00:00 23.7 6 Nordeste 12 Nordeste 0 -- -- 70
2020-09-06 20:00:00 24.4 5 Nordeste 18 Nordeste 0 -- -- 69
2020-09-06 19:00:00 25.7 9 Nordeste 18 Este 0 -- -- 65
2020-09-06 18:00:00 27 10 Este 19 Este 0 -- -- 63
2020-09-06 17:00:00 28.6 7 Este 30 Nordeste 0 -- -- 55
2020-09-06 16:00:00 31.3 13 Este 26 Este 0 -- -- 47
2020-09-06 15:00:00 30.5 12 Este 27 Este 0 -- -- 48
2020-09-06 14:00:00 30.1 9 Este 21 Nordeste 0 -- -- 49
2020-09-06 13:00:00 29.5 12 Este 25 Este 0 -- -- 50
2020-09-06 12:00:00 28.7 17 Este 28 Este 0 -- -- 53
2020-09-06 11:00:00 27.4 6 Nordeste 13 Este 0 -- -- 57
2020-09-06 10:00:00 24.8 4 Sudeste 8 Sudeste 0 -- -- 67
2020-09-06 09:00:00 21 0 Calma 3 Noroeste 0 -- -- 89
2020-09-06 08:00:00 16.7 0 Calma 5 Sudoeste 0 -- -- 95
2020-09-06 07:00:00 16.2 3 Oeste 4 Oeste 0 -- -- 94
2020-09-06 06:00:00 16.4 0 Calma 5 Noroeste 0 -- -- 94
2020-09-06 05:00:00 16.7 0 Calma 4 Noroeste 0 -- -- 93
2020-09-06 04:00:00 17 0 Calma 4 Noroeste 0 -- -- 92
2020-09-06 03:00:00 17.5 2 Sudoeste 5 Sur 0 -- -- 91
2020-09-06 02:00:00 18 2 Oeste 5 Noroeste 0 -- -- 89
2020-09-06 01:00:00 18.7 4 Noroeste 5 Norte 0 -- -- 87
2020-09-06 00:00:00 19.4 2 Oeste 6 Noroeste 0 -- -- 85
2020-09-05 23:00:00 20.2 2 Oeste 4 Noroeste 0 -- -- 83
2020-09-05 22:00:00 21.3 4 Noroeste 5 Norte 0 -- -- 77
2020-09-05 21:00:00 22.9 3 Nordeste 11 Nordeste 0 -- -- 71
2020-09-05 20:00:00 25.1 8 Este 19 Este 0 -- -- 62
2020-09-05 19:00:00 28.5 7 Nordeste 22 Este 0 -- -- 48
2020-09-05 18:00:00 29.7 12 Nordeste 27 Este 0 -- -- 41
2020-09-05 17:00:00 30.5 15 Este 28 Este 0 -- -- 39
2020-09-05 16:00:00 30.5 13 Este 28 Este 0 -- -- 40
2020-09-05 15:00:00 30.3 14 Este 26 Este 0 -- -- 42
2020-09-05 14:00:00 29.2 14 Este 28 Este 0 -- -- 44
2020-09-05 13:00:00 28.8 11 Nordeste 23 Nordeste 0 -- -- 46
2020-09-05 12:00:00 27.3 12 Este 22 Este 0 -- -- 55
2020-09-05 11:00:00 26.2 9 Nordeste 16 Nordeste 0 -- -- 60
2020-09-05 10:00:00 25.1 4 Nordeste 9 Nordeste 0 -- -- 67
2020-09-05 09:00:00 21 3 Norte 4 Norte 0 -- -- 91
2020-09-05 08:00:00 17.1 3 Sudoeste 4 Sudoeste 0 -- -- 96
2020-09-05 07:00:00 16.7 0 Calma 4 Noroeste 0 -- -- 95
2020-09-05 06:00:00 17 2 Oeste 4 Noroeste 0 -- -- 94
2020-09-05 05:00:00 18 0 Calma 2 Este 0 -- -- 94
2020-09-05 04:00:00 19.2 0 Calma 2 Oeste 0 -- -- 93
2020-09-05 03:00:00 18.8 0 Calma 4 Noroeste 0 -- -- 93
2020-09-05 02:00:00 18.9 3 Noroeste 6 Noroeste 0 -- -- 92
2020-09-05 01:00:00 19.6 5 Noroeste 6 Noroeste 0 -- -- 91
2020-09-05 00:00:00 20.5 4 Noroeste 5 Noroeste 0 -- -- 87
2020-09-04 23:00:00 22.2 2 Este 5 Este 0 -- -- 81
2020-09-04 22:00:00 22.6 3 Sudeste 10 Este 0 -- -- 80
2020-09-04 21:00:00 23.5 5 Este 15 Este 0 -- -- 75
2020-09-04 20:00:00 24.6 9 Este 19 Este 0 -- -- 70
2020-09-04 19:00:00 25.5 9 Este 18 Este 0 -- -- 66
2020-09-04 18:00:00 26 8 Sudeste 21 Sudeste 0 -- -- 59
2020-09-04 17:00:00 27.4 10 Este 18 Este 0 -- -- 58
2020-09-04 16:00:00 27.2 5 Sudeste 25 Este 0 -- -- 56
2020-09-04 15:00:00 30.3 10 Este 26 Sudeste 0 -- -- 50
2020-09-04 14:00:00 29.7 9 Este 18 Este 0 -- -- 50
2020-09-04 13:00:00 29.2 9 Este 21 Este 0 -- -- 50
2020-09-04 12:00:00 28.1 4 Este 12 Este 0 -- -- 51
2020-09-04 11:00:00 26.7 3 Norte 8 Este 0 -- -- 61
2020-09-04 10:00:00 24.6 0 Calma 4 Noroeste 0 -- -- 71
2020-09-04 09:00:00 21.6 0 Calma 5 Sudoeste 0 -- -- 91
2020-09-04 08:00:00 16.9 4 Sudoeste 9 Sudoeste 0 -- -- 96
2020-09-04 07:00:00 16.1 4 Noroeste 6 Noroeste 0 -- -- 96
2020-09-04 06:00:00 16.1 3 Noroeste 5 Noroeste 0 -- -- 96
2020-09-04 05:00:00 16.6 3 Sudoeste 10 Sudoeste 0 -- -- 95
2020-09-04 04:00:00 17.1 4 Norte 5 Norte 0 -- -- 94
2020-09-04 03:00:00 17.2 2 Noroeste 4 Noroeste 0 -- -- 93
2020-09-04 02:00:00 18.2 0 Calma 5 Sudeste 0 -- -- 93
2020-09-04 01:00:00 18.9 2 Oeste 6 Noroeste 0 -- -- 91
2020-09-04 00:00:00 19.8 4 Oeste 6 Noroeste 0 -- -- 89
2020-09-03 23:00:00 21.4 4 Noroeste 6 Norte 0 -- -- 83
2020-09-03 22:00:00 22.8 5 Norte 8 Nordeste 0 -- -- 77
2020-09-03 21:00:00 24 4 Nordeste 7 Nordeste 0 -- -- 72
2020-09-03 20:00:00 25.3 4 Este 15 Este 0 -- -- 66
2020-09-03 19:00:00 26.1 0 Calma 8 Sudoeste 0 -- -- 57
2020-09-03 18:00:00 26.3 3 Noroeste 12 Este 0 -- -- 55
2020-09-03 17:00:00 27.3 4 Nordeste 18 Sur 0 -- -- 53
2020-09-03 16:00:00 25.6 8 Sudoeste 15 Sudoeste 0 -- -- 58
2020-09-03 15:00:00 25.5 9 Sudoeste 17 Sudoeste 0 -- -- 55
2020-09-03 14:00:00 26.6 10 Sudoeste 23 Sudoeste 0 -- -- 50
2020-09-03 13:00:00 28.3 8 Sudeste 17 Sudeste 0 -- -- 45
2020-09-03 12:00:00 27.5 7 Sudeste 14 Este 0 -- -- 48
2020-09-03 11:00:00 26.3 5 Sudeste 11 Sudeste 0 -- -- 53
2020-09-03 10:00:00 23.7 4 Sudeste 8 Sur 0 -- -- 65
2020-09-03 09:00:00 20.5 3 Sur 5 Sudoeste 0 -- -- 81
2020-09-03 08:00:00 15.9 2 Oeste 6 Sudoeste 0 -- -- 94
2020-09-03 07:00:00 15.4 2 Sudoeste 4 Sudoeste 0 -- -- 93
2020-09-03 06:00:00 15.7 4 Sudoeste 6 Sudoeste 0 -- -- 93
2020-09-03 05:00:00 16 3 Oeste 4 Sudoeste 0 -- -- 92
2020-09-03 04:00:00 16.2 3 Oeste 6 Sudoeste 0 -- -- 92
2020-09-03 03:00:00 16.6 3 Oeste 4 Sudoeste 0 -- -- 91
2020-09-03 02:00:00 17.1 0 Calma 4 Noroeste 0 -- -- 89
2020-09-03 01:00:00 18 2 Norte 10 Norte 0 -- -- 83
2020-09-03 00:00:00 18.8 8 Norte 10 Noroeste 0 -- -- 79
2020-09-02 23:00:00 18.9 8 Norte 10 Noroeste 0 -- -- 79
2020-09-02 22:00:00 20 4 Norte 8 Norte 0 -- -- 73
2020-09-02 21:00:00 21.2 3 Nordeste 10 Nordeste 0 -- -- 70
2020-09-02 20:00:00 24.5 6 Nordeste 20 Este 0 -- -- 55
2020-09-02 19:00:00 26.2 11 Este 23 Este 0 -- -- 49
2020-09-02 18:00:00 27 13 Nordeste 24 Nordeste 0 -- -- 48
2020-09-02 17:00:00 27.6 7 Nordeste 23 Nordeste 0 -- -- 45
2020-09-02 16:00:00 27.4 10 Nordeste 26 Este 0 -- -- 45
2020-09-02 15:00:00 27.5 13 Nordeste 33 Este 0 -- -- 46
2020-09-02 14:00:00 27.9 10 Nordeste 27 Este 0 -- -- 51
2020-09-02 13:00:00 26.4 12 Nordeste 26 Este 0 -- -- 52
2020-09-02 12:00:00 25.2 10 Nordeste 19 Este 0 -- -- 58
2020-09-02 11:00:00 24.1 9 Nordeste 17 Norte 0 -- -- 63
2020-09-02 10:00:00 22 8 Nordeste 14 Norte 0 -- -- 71
2020-09-02 09:00:00 18.1 4 Nordeste 12 Norte 0 -- -- 91
2020-09-02 08:00:00 17.2 6 Nordeste 14 Norte 1.8 -- -- 93
2020-09-02 07:00:00 17.6 9 Este 17 Norte 1.2 -- -- 91
2020-09-02 06:00:00 18 14 Norte 36 Noroeste 1.2 -- -- 84
2020-09-02 05:00:00 18 5 Norte 12 Norte 0 -- -- 85
2020-09-02 04:00:00 18.1 3 Norte 6 Noroeste 0 -- -- 83
2020-09-02 03:00:00 19.6 6 Noroeste 8 Noroeste 0 -- -- 77
2020-09-02 02:00:00 19.8 4 Noroeste 6 Noroeste 0 -- -- 78
2020-09-02 01:00:00 20.5 3 Nordeste 6 Nordeste 0 -- -- 74
2020-09-02 00:00:00 20.9 0 Calma 5 Este 0 -- -- 73
2020-09-01 23:00:00 21.5 5 Norte 9 Noroeste 0 -- -- 68
2020-09-01 22:00:00 22.8 0 Calma 10 Norte 0 -- -- 63
2020-09-01 21:00:00 23.2 4 Noroeste 10 Norte 0 -- -- 62
2020-09-01 20:00:00 23.9 6 Norte 14 Norte 0 -- -- 57
2020-09-01 19:00:00 24.9 7 Nordeste 16 Nordeste 0 -- -- 54
2020-09-01 18:00:00 25.5 4 Nordeste 18 Nordeste 0 -- -- 53
2020-09-01 17:00:00 26.4 7 Este 18 Nordeste 0 -- -- 47
2020-09-01 16:00:00 27.7 8 Sudoeste 26 Sudoeste 0 -- -- 47
2020-09-01 15:00:00 27.5 15 Sur 27 Sudoeste 0 -- -- 48
2020-09-01 14:00:00 28.3 8 Sur 15 Sudoeste 0 -- -- 44
2020-09-01 13:00:00 27.1 6 Oeste 18 Sudoeste 0 -- -- 39
2020-09-01 12:00:00 27 5 Sur 14 Sur 0 -- -- 34
2020-09-01 11:00:00 26.3 4 Nordeste 9 Sur 0 -- -- 40
2020-09-01 10:00:00 23.6 3 Sur 6 Sur 0 -- -- 57
2020-09-01 09:00:00 19.9 2 Sudoeste 4 Sur 0 -- -- 83
2020-09-01 08:00:00 14.5 3 Oeste 5 Sur 0 -- -- 95
2020-09-01 07:00:00 13.7 0 Calma 5 Sudoeste 0 -- -- 94
2020-09-01 06:00:00 14.1 3 Sudoeste 8 Norte 0 -- -- 93
2020-09-01 05:00:00 14.3 0 Calma 4 Noroeste 0 -- -- 93
2020-09-01 04:00:00 14.8 3 Oeste 5 Sudoeste 0 -- -- 92
2020-09-01 03:00:00 15.4 3 Sudoeste 4 Sur 0 -- -- 91
2020-09-01 02:00:00 16.1 0 Calma 5 Oeste 0 -- -- 88
2020-09-01 01:00:00 17 5 Oeste 8 Sudoeste 0 -- -- 83
2020-09-01 00:00:00 17.9 2 Sudoeste 9 Oeste 0 -- -- 80
2020-08-31 23:00:00 19.3 4 Sudoeste 9 Sur 0 -- -- 71
2020-08-31 22:00:00 20.1 3 Sur 11 Sudoeste 0 -- -- 67
2020-08-31 21:00:00 21.9 10 Sudoeste 19 Sudoeste 0 -- -- 59
2020-08-31 20:00:00 23.3 12 Sudoeste 21 Sudoeste 0 -- -- 54
2020-08-31 19:00:00 25.2 13 Sudoeste 24 Sudoeste 0 -- -- 48
2020-08-31 18:00:00 26.1 14 Sudoeste 36 Sur 0 -- -- 46
2020-08-31 17:00:00 26 13 Sudoeste 23 Sudoeste 0 -- -- 48
2020-08-31 16:00:00 25.6 17 Sur 27 Sur 0 -- -- 51
2020-08-31 15:00:00 25.2 9 Sur 24 Sur 0 -- -- 48
2020-08-31 14:00:00 25.4 9 Sudeste 24 Este 0 -- -- 47
2020-08-31 13:00:00 26.4 8 Sudeste 21 Este 0 -- -- 46
2020-08-31 12:00:00 26.4 11 Este 30 Este 0 -- -- 47
2020-08-31 11:00:00 24.8 13 Nordeste 25 Nordeste 0 -- -- 52
2020-08-31 10:00:00 23.6 10 Nordeste 18 Este 0 -- -- 54
2020-08-31 09:00:00 21.5 7 Nordeste 12 Nordeste 0 -- -- 65
2020-08-31 08:00:00 16.9 8 Norte 12 Norte 0 -- -- 87
2020-08-31 07:00:00 15.7 6 Norte 8 Norte 0 -- -- 90
2020-08-31 06:00:00 16.2 3 Nordeste 10 Norte 0 -- -- 87
2020-08-31 05:00:00 17.1 5 Nordeste 27 Nordeste 0 -- -- 84
2020-08-31 04:00:00 18.4 14 Nordeste 27 Nordeste 0 -- -- 81
2020-08-31 03:00:00 18.5 17 Nordeste 30 Este 0 -- -- 85
2020-08-31 02:00:00 18.1 4 Nordeste 13 Nordeste 0 -- -- 83
2020-08-31 01:00:00 18.7 7 Nordeste 12 Nordeste 0 -- -- 85
2020-08-31 00:00:00 19.5 5 Norte 10 Nordeste 0 -- -- 81
2020-08-30 23:00:00 19.2 5 Norte 9 Norte 0 -- -- 81
2020-08-30 22:00:00 19.8 6 Norte 9 Norte 0 -- -- 75
2020-08-30 21:00:00 20.6 6 Norte 13 Nordeste 0 -- -- 69
2020-08-30 20:00:00 22.7 10 Nordeste 24 Nordeste 0 -- -- 61
2020-08-30 19:00:00 25.2 11 Nordeste 26 Nordeste 0 -- -- 54
2020-08-30 18:00:00 25 14 Este 30 Este 0 -- -- 56
2020-08-30 17:00:00 25.7 14 Este 25 Este 0 -- -- 54
2020-08-30 16:00:00 24.8 17 Este 32 Este 0 -- -- 57
2020-08-30 15:00:00 25.8 8 Este 19 Noroeste 0 -- -- 44
2020-08-30 14:00:00 25.3 13 Noroeste 21 Oeste 0 -- -- 47
2020-08-30 13:00:00 25 8 Oeste 36 Oeste 0 -- -- 51
2020-08-30 12:00:00 24.3 8 Noroeste 19 Oeste 0 -- -- 53
2020-08-30 11:00:00 23.8 10 Noroeste 22 Oeste 0 -- -- 54
2020-08-30 10:00:00 22.6 8 Oeste 15 Oeste 0 -- -- 65
2020-08-30 09:00:00 20.1 6 Oeste 11 Oeste 0 -- -- 82
2020-08-30 08:00:00 16.8 6 Sudoeste 11 Oeste 0 -- -- 93
2020-08-30 07:00:00 16.2 7 Oeste 11 Oeste 0 -- -- 96
2020-08-30 06:00:00 15.8 5 Noroeste 9 Noroeste 0.2 -- -- 96
2020-08-30 05:00:00 15.9 4 Sudoeste 9 Noroeste 0 -- -- 95
2020-08-30 04:00:00 16.5 0 Calma 8 Oeste 0 -- -- 95
2020-08-30 03:00:00 17.1 4 Oeste 7 Oeste 0 -- -- 95
2020-08-30 02:00:00 17.7 0 Calma 6 Nordeste 0 -- -- 94
2020-08-30 01:00:00 18 3 Sur 8 Noroeste 0 -- -- 93
2020-08-30 00:00:00 18 7 Norte 13 Noroeste 0.8 -- -- 92
2020-08-29 23:00:00 18.7 7 Nordeste 27 Nordeste 2 -- -- 90
2020-08-29 22:00:00 19.4 6 Nordeste 29 Nordeste 0.4 -- -- 85
2020-08-29 21:00:00 20 15 Nordeste 28 Nordeste 0 -- -- 84
2020-08-29 20:00:00 19.9 15 Nordeste 34 Nordeste 0.4 -- -- 88
2020-08-29 19:00:00 21.7 15 Nordeste 31 Nordeste 0 -- -- 80
2020-08-29 18:00:00 22.1 22 Nordeste 41 Este 0 -- -- 79
2020-08-29 17:00:00 22.3 23 Nordeste 44 Nordeste 0 -- -- 80
2020-08-29 16:00:00 23.3 27 Nordeste 44 Nordeste 0 -- -- 78
2020-08-29 15:00:00 23.8 24 Nordeste 38 Nordeste 0 -- -- 82
2020-08-29 14:00:00 23 18 Nordeste 28 Nordeste 0 -- -- 95
2020-08-29 13:00:00 21.2 13 Nordeste 34 Este 3.8 -- -- 96
2020-08-29 12:00:00 19 17 Nordeste 72 Norte 26.6 -- -- 96
2020-08-29 11:00:00 25.9 24 Este 41 Nordeste 0 -- -- 75
2020-08-29 10:00:00 27 13 Este 23 Este 0 -- -- 73
2020-08-29 09:00:00 25.3 10 Nordeste 17 Norte 0 -- -- 81
2020-08-29 08:00:00 23.5 8 Nordeste 18 Norte 0 -- -- 87
2020-08-29 07:00:00 22.9 8 Norte 24 Nordeste 0 -- -- 88
2020-08-29 06:00:00 22.8 11 Nordeste 35 Nordeste 0 -- -- 86
2020-08-29 05:00:00 23.2 13 Nordeste 30 Nordeste 0 -- -- 89
2020-08-29 04:00:00 23.7 10 Nordeste 15 Norte 0 -- -- 88
2020-08-29 03:00:00 22.5 3 Oeste 6 Oeste 0 -- -- 87
2020-08-29 02:00:00 22.9 0 Calma 6 Noroeste 0 -- -- 87
2020-08-29 01:00:00 23.4 4 Noroeste 5 Oeste 0 -- -- 85
2020-08-29 00:00:00 24.4 3 Sur 12 Sur 0 -- -- 83
2020-08-28 23:00:00 25.7 9 Sudoeste 18 Sudoeste 0 -- -- 80
2020-08-28 22:00:00 26.3 6 Oeste 11 Oeste 0 -- -- 72
2020-08-28 21:00:00 26.7 8 Oeste 16 Sudoeste 0 -- -- 70
2020-08-28 20:00:00 29.9 8 Sudoeste 17 Sudeste 0 -- -- 48
2020-08-28 19:00:00 32.6 9 Sudoeste 19 Sur 0 -- -- 39
2020-08-28 18:00:00 33.3 13 Sudoeste 33 Sudoeste 0 -- -- 36
2020-08-28 17:00:00 34.5 13 Sudoeste 23 Sudoeste 0 -- -- 32
2020-08-28 16:00:00 34.4 13 Sudoeste 28 Sudoeste 0 -- -- 33
2020-08-28 15:00:00 33.7 16 Sudoeste 32 Sudoeste 0 -- -- 35
2020-08-28 14:00:00 33.6 16 Sudoeste 31 Sudoeste 0 -- -- 36
2020-08-28 13:00:00 33.5 17 Sudoeste 26 Sudoeste 0 -- -- 41
2020-08-28 12:00:00 32.4 11 Sudoeste 22 Sudoeste 0 -- -- 43
2020-08-28 11:00:00 30.7 10 Sur 15 Sur 0 -- -- 42
2020-08-28 10:00:00 27.6 5 Sur 9 Sur 0 -- -- 63
2020-08-28 09:00:00 23.6 4 Sur 6 Sudoeste 0 -- -- 71
2020-08-28 08:00:00 18.2 3 Sudoeste 5 Noroeste 0 -- -- 83
2020-08-28 07:00:00 17.2 0 Calma 4 Sudoeste 0 -- -- 83
2020-08-28 06:00:00 17.3 3 Oeste 4 Oeste 0 -- -- 83
2020-08-28 05:00:00 17.8 3 Sudoeste 5 Sur 0 -- -- 84
2020-08-28 04:00:00 18.6 2 Sudoeste 5 Sudoeste 0 -- -- 84
2020-08-28 03:00:00 19.8 2 Sudoeste 7 Sudoeste 0 -- -- 86
2020-08-28 02:00:00 21.3 5 Sudoeste 11 Sudoeste 0 -- -- 85
2020-08-28 01:00:00 22.5 9 Oeste 13 Oeste 0 -- -- 86
2020-08-28 00:00:00 23.4 7 Sudoeste 11 Sudoeste 0 -- -- 89
2020-08-27 23:00:00 24.3 8 Sudoeste 14 Sudoeste 0 -- -- 85
2020-08-27 22:00:00 25.3 10 Sudoeste 16 Oeste 0 -- -- 82
2020-08-27 21:00:00 26.2 10 Sudoeste 19 Sudoeste 0 -- -- 74
2020-08-27 20:00:00 28.4 14 Sudoeste 25 Sudoeste 0 -- -- 50
2020-08-27 19:00:00 30.7 17 Sudoeste 27 Sudoeste 0 -- -- 42
2020-08-27 18:00:00 31.4 19 Oeste 27 Oeste 0 -- -- 45
2020-08-27 17:00:00 32.8 17 Oeste 26 Oeste 0 -- -- 37
2020-08-27 16:00:00 33.9 15 Sudoeste 26 Sudoeste 0 -- -- 36
2020-08-27 15:00:00 34.1 16 Sudoeste 27 Sudoeste 0 -- -- 39
2020-08-27 14:00:00 33.9 18 Oeste 28 Sudoeste 0 -- -- 39
2020-08-27 13:00:00 34.2 12 Sudoeste 23 Sudoeste 0 -- -- 35
2020-08-27 12:00:00 33.9 11 Sur 18 Sur 0 -- -- 35
2020-08-27 11:00:00 31.9 8 Sudoeste 14 Sur 0 -- -- 42
2020-08-27 10:00:00 29.5 4 Sudoeste 8 Sudoeste 0 -- -- 46
2020-08-27 09:00:00 25.1 3 Sudoeste 5 Sudoeste 0 -- -- 55
2020-08-27 08:00:00 19.5 3 Sudoeste 5 Sudoeste 0 -- -- 75
2020-08-27 07:00:00 18.7 0 Calma 4 Noroeste 0 -- -- 78
2020-08-27 06:00:00 19 3 Noroeste 5 Oeste 0 -- -- 80
2020-08-27 05:00:00 19.4 4 Oeste 4 Sudoeste 0 -- -- 81
2020-08-27 04:00:00 19.8 3 Noroeste 5 Noroeste 0 -- -- 84
2020-08-27 03:00:00 20.8 2 Norte 4 Oeste 0 -- -- 87
2020-08-27 02:00:00 22.2 2 Oeste 7 Sudoeste 0 -- -- 90
2020-08-27 01:00:00 23 5 Sudoeste 8 Sudoeste 0 -- -- 89
2020-08-27 00:00:00 23.7 6 Sudoeste 10 Sudoeste 0 -- -- 85
2020-08-26 23:00:00 25.1 8 Sudoeste 14 Oeste 0 -- -- 82
2020-08-26 22:00:00 26.1 9 Sudoeste 18 Oeste 0 -- -- 74
2020-08-26 21:00:00 27 12 Oeste 23 Sudoeste 0 -- -- 66
2020-08-26 20:00:00 29.2 16 Sudoeste 27 Sudoeste 0 -- -- 53
2020-08-26 19:00:00 31 17 Sudoeste 24 Sudoeste 0 -- -- 50
2020-08-26 18:00:00 32.3 18 Sudoeste 28 Oeste 0 -- -- 47
2020-08-26 17:00:00 33.6 18 Sudoeste 28 Oeste 0 -- -- 41
2020-08-26 16:00:00 35.1 16 Sudoeste 30 Sudoeste 0 -- -- 37
2020-08-26 15:00:00 35.1 16 Sudoeste 26 Sudoeste 0 -- -- 38
2020-08-26 14:00:00 34.7 13 Sudoeste 23 Oeste 0 -- -- 40
2020-08-26 13:00:00 34.6 9 Sur 20 Sudoeste 0 -- -- 39
2020-08-26 12:00:00 33.2 10 Sur 18 Sur 0 -- -- 40
2020-08-26 11:00:00 31.1 5 Sudoeste 14 Sur 0 -- -- 43
2020-08-26 10:00:00 29.6 5 Sudoeste 9 Sudoeste 0 -- -- 46
2020-08-26 09:00:00 25.3 6 Sudoeste 8 Sudoeste 0 -- -- 59
2020-08-26 08:00:00 19.6 4 Sudoeste 6 Sudoeste 0 -- -- 81
2020-08-26 07:00:00 18.3 4 Sudoeste 5 Sudoeste 0 -- -- 86
2020-08-26 06:00:00 19.1 3 Sur 5 Sur 0 -- -- 85
2020-08-26 05:00:00 19.3 0 Calma 8 Noroeste 0 -- -- 89
2020-08-26 04:00:00 19.9 4 Sudoeste 5 Oeste 0 -- -- 90
2020-08-26 03:00:00 21 0 Calma 6 Oeste 0 -- -- 88
2020-08-26 02:00:00 22.6 6 Sudoeste 12 Oeste 0 -- -- 85
2020-08-26 01:00:00 23.4 8 Oeste 12 Oeste 0 -- -- 84
2020-08-26 00:00:00 23.7 6 Oeste 10 Sudoeste 0 -- -- 82
2020-08-25 23:00:00 24.5 7 Sudoeste 15 Sudoeste 0 -- -- 80
2020-08-25 22:00:00 25.5 10 Oeste 19 Oeste 0 -- -- 77
2020-08-25 21:00:00 26.4 10 Sudoeste 19 Oeste 0 -- -- 72
2020-08-25 20:00:00 28.2 14 Oeste 23 Sudoeste 0 -- -- 59
2020-08-25 19:00:00 29.5 18 Oeste 26 Oeste 0 -- -- 53
2020-08-25 18:00:00 30.6 17 Oeste 32 Sudoeste 0 -- -- 52
2020-08-25 17:00:00 31.7 19 Oeste 27 Sudoeste 0 -- -- 48
2020-08-25 16:00:00 32.2 16 Sudoeste 30 Oeste 0 -- -- 45
2020-08-25 15:00:00 32 17 Sudoeste 26 Sudoeste 0 -- -- 43
2020-08-25 14:00:00 31.1 16 Sudoeste 28 Oeste 0 -- -- 48
2020-08-25 13:00:00 30.7 19 Oeste 28 Oeste 0 -- -- 50
2020-08-25 12:00:00 30 15 Sudoeste 25 Oeste 0 -- -- 54
2020-08-25 11:00:00 28.7 13 Sudoeste 20 Sudoeste 0 -- -- 59
2020-08-25 10:00:00 27 10 Sudoeste 15 Sudoeste 0 -- -- 67
2020-08-25 09:00:00 24.6 7 Sudoeste 10 Sur 0 -- -- 74
2020-08-25 08:00:00 20.4 4 Sur 6 Sudoeste 0 -- -- 86
2020-08-25 07:00:00 19.1 0 Calma 3 Sur 0 -- -- 87
2020-08-25 06:00:00 19.5 0 Calma 4 Sudoeste 0 -- -- 86
2020-08-25 05:00:00 19.9 0 Calma 6 Oeste 0 -- -- 86
2020-08-25 04:00:00 20.2 3 Sudoeste 6 Sudoeste 0 -- -- 83
2020-08-25 03:00:00 21.4 0 Calma 9 Oeste 0 -- -- 81
2020-08-25 02:00:00 21.9 6 Oeste 9 Oeste 0 -- -- 80
2020-08-25 01:00:00 22.2 8 Oeste 9 Oeste 0 -- -- 78
2020-08-25 00:00:00 22.7 4 Sudoeste 8 Sudoeste 0 -- -- 76
2020-08-24 23:00:00 23.4 5 Sudoeste 8 Sur 0 -- -- 73
2020-08-24 22:00:00 24.8 5 Oeste 8 Oeste 0 -- -- 70
2020-08-24 21:00:00 25.6 5 Este 15 Nordeste 0 -- -- 64
2020-08-24 20:00:00 27.5 9 Nordeste 19 Este 0 -- -- 58
2020-08-24 19:00:00 29.8 4 Sur 18 Sudoeste 0 -- -- 54
2020-08-24 18:00:00 29 5 Noroeste 19 Oeste 0 -- -- 56
2020-08-24 17:00:00 28.2 5 Noroeste 15 Sudoeste 0 -- -- 57
2020-08-24 16:00:00 28 9 Oeste 22 Sudoeste 0 -- -- 58
2020-08-24 15:00:00 28.9 15 Sudoeste 27 Sudoeste 0 -- -- 56
2020-08-24 14:00:00 28.2 17 Sudoeste 25 Sudoeste 0 -- -- 57
2020-08-24 13:00:00 28.7 5 Sur 15 Sur 0 -- -- 52
2020-08-24 12:00:00 29 4 Este 15 Sudeste 0 -- -- 52
2020-08-24 11:00:00 28.6 3 Este 13 Sudeste 0 -- -- 54
2020-08-24 10:00:00 26.2 4 Sur 12 Este 0 -- -- 63
2020-08-24 09:00:00 25.1 3 Noroeste 6 Norte 0 -- -- 73
2020-08-24 08:00:00 21.6 4 Noroeste 5 Noroeste 0 -- -- 85
2020-08-24 07:00:00 19.7 3 Sur 5 Noroeste 0 -- -- 85
2020-08-24 06:00:00 20.2 4 Oeste 5 Oeste 0 -- -- 84
2020-08-24 05:00:00 20.4 3 Norte 4 Noroeste 0 -- -- 84
2020-08-24 04:00:00 20.8 2 Oeste 6 Noroeste 0 -- -- 82
2020-08-24 03:00:00 21.3 4 Noroeste 4 Noroeste 0 -- -- 81
2020-08-24 02:00:00 21.8 0 Calma 3 Norte 0 -- -- 81
2020-08-24 01:00:00 22.3 2 Norte 5 Norte 0 -- -- 79
2020-08-24 00:00:00 23 5 Norte 6 Norte 0 -- -- 78
2020-08-23 23:00:00 23.9 3 Nordeste 9 Nordeste 0 -- -- 75
2020-08-23 22:00:00 24.6 7 Nordeste 14 Este 0 -- -- 72
2020-08-23 21:00:00 25.6 6 Este 13 Nordeste 0 -- -- 67
2020-08-23 20:00:00 27.4 8 Nordeste 19 Este 0 -- -- 60
2020-08-23 19:00:00 28.5 11 Nordeste 22 Este 0 -- -- 57
2020-08-23 18:00:00 31.5 13 Este 20 Este 0 -- -- 48
2020-08-23 17:00:00 31.1 12 Nordeste 25 Este 0 -- -- 49
2020-08-23 16:00:00 32.3 13 Este 28 Nordeste 0 -- -- 46
2020-08-23 15:00:00 32.4 12 Nordeste 28 Nordeste 0 -- -- 45
2020-08-23 14:00:00 31.1 14 Nordeste 27 Nordeste 0 -- -- 48
2020-08-23 13:00:00 31.5 17 Este 31 Este 0 -- -- 46
2020-08-23 12:00:00 29.9 17 Nordeste 31 Este 0 -- -- 49
2020-08-23 11:00:00 30 17 Nordeste 29 Este 0 -- -- 49
2020-08-23 10:00:00 28.3 18 Nordeste 27 Nordeste 0 -- -- 54
2020-08-23 09:00:00 26.5 16 Nordeste 25 Nordeste 0 -- -- 61
2020-08-23 08:00:00 24.2 11 Nordeste 18 Nordeste 0 -- -- 70
2020-08-23 07:00:00 23.4 11 Nordeste 16 Nordeste 0 -- -- 74
2020-08-23 06:00:00 23.7 8 Nordeste 18 Nordeste 0 -- -- 74
2020-08-23 05:00:00 24.4 11 Nordeste 19 Nordeste 0 -- -- 75
2020-08-23 04:00:00 24.2 6 Nordeste 14 Nordeste 0 -- -- 81
2020-08-23 03:00:00 24.3 6 Nordeste 14 Nordeste 0 -- -- 86
2020-08-23 02:00:00 24.9 11 Nordeste 18 Nordeste 0 -- -- 84
2020-08-23 01:00:00 25.3 9 Nordeste 14 Nordeste 0 -- -- 84
2020-08-23 00:00:00 24.9 5 Este 11 Este 0 -- -- 85
2020-08-22 23:00:00 25.3 5 Este 15 Este 0 -- -- 83
2020-08-22 22:00:00 26.3 6 Este 13 Este 0 -- -- 79
2020-08-22 21:00:00 27.6 5 Nordeste 17 Este 0 -- -- 73
2020-08-22 20:00:00 30.3 9 Este 17 Este 0 -- -- 64
2020-08-22 19:00:00 31.1 7 Nordeste 17 Este 0 -- -- 62
2020-08-22 18:00:00 32.2 9 Este 22 Este 0 -- -- 59
2020-08-22 17:00:00 33.3 12 Nordeste 27 Este 0 -- -- 56
2020-08-22 16:00:00 34.4 14 Este 25 Este 0 -- -- 54
2020-08-22 15:00:00 34.5 8 Este 28 Este 0 -- -- 53
2020-08-22 14:00:00 34.4 13 Nordeste 29 Este 0 -- -- 52
2020-08-22 13:00:00 34.5 9 Este 24 Este 0 -- -- 51
2020-08-22 12:00:00 32.8 13 Este 29 Este 0 -- -- 55
2020-08-22 11:00:00 32 12 Este 23 Sudeste 0 -- -- 58
2020-08-22 10:00:00 29.1 8 Nordeste 17 Este 0 -- -- 71
2020-08-22 09:00:00 27 4 Este 8 Este 0 -- -- 82
2020-08-22 08:00:00 24.6 2 Nordeste 4 Nordeste 0 -- -- 86
2020-08-22 07:00:00 23.6 2 Oeste 4 Oeste 0 -- -- 88
2020-08-22 06:00:00 21.3 3 Oeste 4 Sudoeste 0 -- -- 91
2020-08-22 05:00:00 21.9 2 Nordeste 5 Nordeste 0 -- -- 90
2020-08-22 04:00:00 22 0 Calma 4 Oeste 0 -- -- 88
2020-08-22 03:00:00 23.4 3 Noroeste 8 Sudoeste 0 -- -- 87
2020-08-22 02:00:00 24 4 Sudoeste -- -- 0 -- -- 85
2020-08-22 01:00:00 24.8 3 Noroeste 4 Nordeste 0 -- -- 85
2020-08-22 00:00:00 25.6 2 Norte 8 Nordeste 0 -- -- 82
2020-08-21 23:00:00 26.5 6 Nordeste 12 Nordeste 0 -- -- 78
2020-08-21 22:00:00 27.3 8 Nordeste 14 Este 0 -- -- 75
2020-08-21 21:00:00 28.3 7 Este 19 Este 0 -- -- 72
2020-08-21 20:00:00 30.9 10 Este 19 Este 0 -- -- 65
2020-08-21 19:00:00 33.3 12 Este 21 Este 0 -- -- 59
2020-08-21 18:00:00 35.2 10 Este 21 Este 0 -- -- 54
2020-08-21 17:00:00 34.1 10 Sur 23 Sur 0 -- -- 55
2020-08-21 16:00:00 34.1 15 Sur 26 Sur 0 -- -- 55
2020-08-21 15:00:00 35.3 10 Sudoeste 29 Sur 0 -- -- 52
2020-08-21 14:00:00 35.8 12 Sudeste 18 Sur 0 -- -- 48
2020-08-21 13:00:00 34.3 7 Sudoeste 15 Sudoeste 0 -- -- 51
2020-08-21 12:00:00 32.5 5 Noroeste 14 Este 0 -- -- 56
2020-08-21 11:00:00 31.4 5 Nordeste 13 Este 0 -- -- 61
2020-08-21 10:00:00 29.4 5 Este 17 Este 0 -- -- 70
2020-08-21 09:00:00 27.3 7 Nordeste 11 Este 0 -- -- 77
2020-08-21 08:00:00 23.4 4 Norte 8 Norte 0 -- -- 84
2020-08-21 07:00:00 22.8 7 Norte 8 Noroeste 0 -- -- 84
2020-08-21 06:00:00 23.9 5 Norte 10 Norte 0 -- -- 85
2020-08-21 05:00:00 23.5 8 Norte 11 Nordeste 0 -- -- 85
2020-08-21 04:00:00 22.6 5 Norte 8 Norte 0 -- -- 82
2020-08-21 03:00:00 23.2 3 Sudeste 10 Nordeste 0 -- -- 80
2020-08-21 02:00:00 23.7 5 Nordeste 10 Nordeste 0 -- -- 77
2020-08-21 01:00:00 24.4 5 Nordeste 10 Nordeste 0 -- -- 76
2020-08-21 00:00:00 25.2 6 Nordeste 9 Nordeste 0 -- -- 73